createdAt,value
2018-10-17T00:00:47.765Z,10.20
2018-10-17T00:03:16.213Z,10.53
2018-10-17T00:05:44.633Z,10.07
2018-10-17T00:08:13.053Z,10.00
2018-10-17T00:10:41.504Z,10.30
2018-10-17T00:13:10.039Z,9.87
2018-10-17T00:15:38.392Z,10.37
2018-10-17T00:18:06.854Z,10.70
2018-10-17T00:20:35.290Z,10.33
2018-10-17T00:23:03.711Z,11.10
2018-10-17T00:25:32.094Z,10.53
2018-10-17T00:28:00.515Z,10.10
2018-10-17T00:30:28.948Z,10.80
2018-10-17T00:32:57.435Z,10.00
2018-10-17T00:35:25.862Z,10.30
2018-10-17T00:37:54.258Z,9.70
2018-10-17T00:40:24.693Z,9.77
2018-10-17T00:42:54.028Z,10.07
2018-10-17T00:45:22.418Z,9.90
2018-10-17T00:47:50.845Z,9.87
2018-10-17T00:50:19.253Z,9.80
2018-10-17T00:52:47.686Z,10.00
2018-10-17T00:55:16.200Z,9.23
2018-10-17T00:57:44.556Z,9.57
2018-10-17T01:00:12.999Z,11.13
2018-10-17T01:02:41.396Z,10.30
2018-10-17T01:05:09.930Z,10.20
2018-10-17T01:07:38.281Z,9.77
2018-10-17T01:10:06.716Z,9.80
2018-10-17T01:12:35.093Z,9.80
2018-10-17T01:15:03.646Z,9.13
2018-10-17T01:17:32.066Z,9.70
2018-10-17T01:20:00.559Z,9.13
2018-10-17T01:22:28.979Z,9.10
2018-10-17T01:24:57.458Z,9.43
2018-10-17T01:27:25.904Z,8.93
2018-10-17T01:29:54.288Z,9.20
2018-10-17T01:32:22.680Z,8.93
2018-10-17T01:34:51.096Z,8.43
2018-10-17T01:37:19.492Z,9.47
2018-10-17T01:39:47.895Z,9.97
2018-10-17T01:42:16.338Z,8.87
2018-10-17T01:44:44.748Z,9.37
2018-10-17T01:47:13.245Z,8.40
2018-10-17T01:49:41.577Z,8.83
2018-10-17T01:52:10.024Z,8.97
2018-10-17T01:54:38.487Z,9.07
2018-10-17T01:57:07.165Z,8.17
2018-10-17T01:59:35.605Z,9.27
2018-10-17T02:02:04.172Z,9.97
2018-10-17T02:04:32.600Z,9.33
2018-10-17T02:07:01.076Z,9.10
2018-10-17T02:09:29.472Z,9.30
2018-10-17T02:11:57.861Z,7.70
2018-10-17T02:14:26.416Z,7.83
2018-10-17T02:16:54.868Z,8.80
2018-10-17T02:19:23.219Z,9.07
2018-10-17T02:21:51.575Z,8.30
2018-10-17T02:24:19.973Z,8.17
2018-10-17T02:26:48.364Z,8.30
2018-10-17T02:29:16.882Z,8.73
2018-10-17T02:31:45.191Z,7.97
2018-10-17T02:34:13.622Z,8.67
2018-10-17T02:36:42.010Z,9.10
2018-10-17T02:39:11.260Z,8.90
2018-10-17T02:41:39.764Z,8.00
2018-10-17T02:44:08.535Z,9.50
2018-10-17T02:46:37.028Z,8.70
2018-10-17T02:49:05.707Z,8.33
2018-10-17T02:51:34.083Z,8.57
2018-10-17T02:54:02.529Z,8.70
2018-10-17T02:56:30.987Z,8.20
2018-10-17T02:58:59.481Z,8.20
2018-10-17T03:01:28.128Z,8.13
2018-10-17T03:03:56.571Z,7.50
2018-10-17T03:06:24.957Z,8.03
2018-10-17T03:08:53.320Z,8.10
2018-10-17T03:11:21.719Z,8.20
2018-10-17T03:13:50.238Z,7.70
2018-10-17T03:16:18.649Z,7.90
2018-10-17T03:18:47.036Z,8.93
2018-10-17T03:21:15.458Z,7.90
2018-10-17T03:23:43.841Z,7.87
2018-10-17T03:26:12.293Z,8.40
2018-10-17T03:28:40.718Z,8.17
2018-10-17T03:31:09.271Z,8.33
2018-10-17T03:33:37.533Z,7.50
2018-10-17T03:36:05.912Z,8.43
2018-10-17T03:38:34.342Z,7.43
2018-10-17T03:41:02.795Z,7.60
2018-10-17T03:43:31.184Z,7.40
2018-10-17T03:45:59.588Z,7.73
2018-10-17T03:48:28.013Z,7.73
2018-10-17T03:50:56.449Z,8.70
2018-10-17T03:53:24.836Z,8.23
2018-10-17T03:55:53.293Z,8.17
2018-10-17T03:58:21.669Z,8.33
2018-10-17T04:00:50.224Z,7.97
2018-10-17T04:03:18.701Z,8.50
2018-10-17T04:05:47.131Z,8.50
2018-10-17T04:08:15.590Z,7.67
2018-10-17T04:10:44.045Z,8.00
2018-10-17T04:13:12.554Z,8.50
2018-10-17T04:15:40.892Z,8.50
2018-10-17T04:18:09.379Z,8.43
2018-10-17T04:20:37.842Z,8.83
2018-10-17T04:23:06.305Z,8.23
2018-10-17T04:25:34.706Z,9.30
2018-10-17T04:28:03.141Z,8.57
2018-10-17T04:30:31.584Z,8.50
2018-10-17T04:32:59.981Z,8.70
2018-10-17T04:35:28.385Z,8.03
2018-10-17T04:37:56.957Z,7.50
2018-10-17T04:40:25.376Z,6.93
2018-10-17T04:42:53.842Z,7.30
2018-10-17T04:45:22.199Z,7.20
2018-10-17T04:47:50.638Z,7.20
2018-10-17T04:50:19.057Z,7.93
2018-10-17T04:52:47.445Z,7.30
2018-10-17T04:55:15.920Z,7.80
2018-10-17T04:57:44.307Z,7.83
2018-10-17T05:00:13.407Z,7.90
2018-10-17T05:02:43.170Z,7.73
2018-10-17T05:05:12.242Z,8.03
2018-10-17T05:07:40.633Z,7.93
2018-10-17T05:10:09.081Z,7.67
2018-10-17T05:12:37.485Z,7.60
2018-10-17T05:15:06.333Z,7.20
2018-10-17T05:17:34.653Z,7.10
2018-10-17T05:20:03.116Z,7.67
2018-10-17T05:22:31.504Z,6.93
2018-10-17T05:24:59.962Z,7.30
2018-10-17T05:27:28.396Z,6.10
2018-10-17T05:29:56.903Z,7.20
2018-10-17T05:32:25.369Z,7.23
2018-10-17T05:34:53.768Z,7.97
2018-10-17T05:37:22.239Z,8.67
2018-10-17T05:39:50.651Z,6.57
2018-10-17T05:42:19.109Z,6.73
2018-10-17T05:44:47.528Z,7.30
2018-10-17T05:47:16.009Z,7.23
2018-10-17T05:49:44.342Z,7.17
2018-10-17T05:52:12.782Z,7.67
2018-10-17T05:54:41.225Z,7.60
2018-10-17T05:57:09.622Z,7.13
2018-10-17T05:59:38.060Z,10.40
2018-10-17T06:02:12.631Z,11.37
2018-10-17T06:04:40.956Z,8.20
2018-10-17T06:07:09.416Z,7.70
2018-10-17T06:09:37.764Z,7.90
2018-10-17T06:12:06.193Z,7.70
2018-10-17T06:14:34.625Z,7.30
2018-10-17T06:17:03.120Z,8.07
2018-10-17T06:19:31.498Z,8.00
2018-10-17T06:21:59.987Z,8.20
2018-10-17T06:24:28.396Z,8.37
2018-10-17T06:26:56.848Z,8.70
2018-10-17T06:29:25.257Z,6.87
2018-10-17T06:31:53.724Z,7.50
2018-10-17T06:34:22.305Z,7.33
2018-10-17T06:36:50.649Z,7.93
2018-10-17T06:39:19.072Z,7.33
2018-10-17T06:41:47.511Z,7.73
2018-10-17T06:44:15.913Z,7.70
2018-10-17T06:46:44.322Z,7.20
2018-10-17T06:49:12.854Z,6.90
2018-10-17T06:51:41.249Z,7.50
2018-10-17T06:54:09.678Z,7.33
2018-10-17T06:56:38.110Z,7.03
2018-10-17T06:59:06.763Z,8.30
2018-10-17T07:01:35.257Z,7.63
2018-10-17T07:04:03.696Z,6.53
2018-10-17T07:06:32.184Z,7.40
2018-10-17T07:09:00.641Z,7.97
2018-10-17T07:11:29.124Z,7.97
2018-10-17T07:13:57.610Z,7.40
2018-10-17T07:16:26.267Z,7.30
2018-10-17T07:18:54.718Z,8.60
2018-10-17T07:21:23.207Z,8.07
2018-10-17T07:23:51.625Z,8.10
2018-10-17T07:26:20.082Z,8.30
2018-10-17T07:28:48.608Z,8.10
2018-10-17T07:31:17.097Z,7.80
2018-10-17T07:33:45.469Z,8.93
2018-10-17T07:36:13.987Z,11.57
2018-10-17T07:38:42.333Z,12.33
2018-10-17T07:41:10.833Z,11.83
2018-10-17T07:43:39.282Z,11.60
2018-10-17T07:46:07.735Z,11.60
2018-10-17T07:48:36.190Z,11.20
2018-10-17T07:51:04.993Z,11.10
2018-10-17T07:53:33.619Z,12.67
2018-10-17T07:56:02.085Z,13.67
2018-10-17T07:58:30.497Z,11.60
2018-10-17T08:00:58.942Z,12.40
2018-10-17T08:03:27.437Z,12.47
2018-10-17T08:05:55.931Z,13.10
2018-10-17T08:08:24.655Z,16.53
2018-10-17T08:10:53.092Z,14.20
2018-10-17T08:13:21.510Z,12.27
2018-10-17T08:15:50.005Z,14.63
2018-10-17T08:18:18.536Z,13.27
2018-10-17T08:20:46.931Z,13.80
2018-10-17T08:23:15.333Z,13.20
2018-10-17T08:25:43.793Z,13.60
2018-10-17T08:28:12.197Z,13.37
2018-10-17T08:30:40.639Z,13.43
2018-10-17T08:33:09.085Z,16.10
2018-10-17T08:35:37.631Z,16.60
2018-10-17T08:38:06.163Z,25.80
2018-10-17T08:40:34.549Z,16.37
2018-10-17T08:43:02.936Z,16.57
2018-10-17T08:45:31.344Z,16.10
2018-10-17T08:47:59.746Z,16.50
2018-10-17T08:50:28.311Z,16.30
2018-10-17T08:52:56.767Z,14.60
2018-10-17T08:55:25.206Z,14.33
2018-10-17T08:57:53.745Z,14.23
2018-10-17T09:00:22.143Z,13.77
2018-10-17T09:02:50.577Z,14.03
2018-10-17T09:05:19.004Z,14.77
2018-10-17T09:07:47.553Z,14.10
2018-10-17T09:10:15.948Z,24.67
2018-10-17T09:12:44.385Z,22.97
2018-10-17T09:15:12.816Z,13.63
2018-10-17T09:17:41.297Z,12.90
2018-10-17T09:20:10.373Z,13.10
2018-10-17T09:22:38.693Z,13.20
2018-10-17T09:25:07.400Z,12.50
2018-10-17T09:27:36.009Z,12.60
2018-10-17T09:30:04.953Z,12.67
2018-10-17T09:32:33.976Z,11.40
2018-10-17T09:35:02.444Z,12.70
2018-10-17T09:37:30.872Z,12.70
2018-10-17T09:39:59.306Z,11.83
2018-10-17T09:42:27.736Z,11.90
2018-10-17T09:44:56.165Z,12.47
2018-10-17T09:47:24.628Z,11.13
2018-10-17T09:49:53.121Z,12.93
2018-10-17T09:52:21.642Z,13.33
2018-10-17T09:54:50.052Z,12.13
2018-10-17T09:57:18.534Z,11.20
2018-10-17T09:59:47.029Z,11.40
2018-10-17T10:02:15.451Z,12.40
2018-10-17T10:04:43.905Z,12.57
2018-10-17T10:07:12.344Z,12.83
2018-10-17T10:09:40.728Z,12.80
2018-10-17T10:12:09.232Z,11.90
2018-10-17T10:14:37.567Z,12.00
2018-10-17T10:17:06.188Z,12.33
2018-10-17T10:19:34.521Z,13.40
2018-10-17T10:22:03.020Z,12.93
2018-10-17T10:24:31.453Z,12.57
2018-10-17T10:27:00.929Z,12.80
2018-10-17T10:29:29.387Z,12.40
2018-10-17T10:31:57.837Z,12.13
2018-10-17T10:34:26.274Z,12.10
2018-10-17T10:36:54.745Z,12.43
2018-10-17T10:39:23.191Z,11.60
2018-10-17T10:41:51.723Z,10.80
2018-10-17T10:44:20.167Z,10.80
2018-10-17T10:46:48.560Z,10.50
2018-10-17T10:49:17.128Z,10.90
2018-10-17T10:51:45.551Z,10.80
2018-10-17T10:54:14.710Z,10.10
2018-10-17T10:56:43.260Z,10.93
2018-10-17T10:59:11.724Z,10.07
2018-10-17T11:01:40.173Z,10.30
2018-10-17T11:04:08.618Z,9.80
2018-10-17T11:06:37.034Z,10.63
2018-10-17T11:09:07.514Z,9.87
2018-10-17T11:11:36.142Z,10.80
2018-10-17T11:14:05.228Z,11.60
2018-10-17T11:16:33.614Z,10.63
2018-10-17T11:19:02.333Z,10.60
2018-10-17T11:21:30.916Z,12.10
2018-10-17T11:24:00.245Z,11.87
2018-10-17T11:26:28.786Z,11.43
2018-10-17T11:28:57.589Z,11.87
2018-10-17T11:31:26.156Z,12.47
2018-10-17T11:33:54.662Z,11.70
2018-10-17T11:36:23.360Z,12.40
2018-10-17T11:38:51.758Z,12.13
2018-10-17T11:41:20.269Z,12.20
2018-10-17T11:43:48.578Z,12.67
2018-10-17T11:46:17.040Z,13.40
2018-10-17T11:48:46.130Z,13.67
2018-10-17T11:51:14.612Z,14.10
2018-10-17T11:53:43.021Z,12.87
2018-10-17T11:56:11.490Z,13.27
2018-10-17T11:58:41.400Z,13.07
2018-10-17T12:01:09.886Z,15.07
2018-10-17T12:03:38.435Z,14.60
2018-10-17T12:06:07.175Z,16.27
2018-10-17T12:08:35.473Z,16.17
2018-10-17T12:11:03.914Z,13.77
2018-10-17T12:13:32.348Z,14.37
2018-10-17T12:16:00.790Z,14.93
2018-10-17T12:18:29.249Z,15.30
2018-10-17T12:20:57.708Z,15.07
2018-10-17T12:23:26.078Z,16.20
2018-10-17T12:25:54.513Z,15.97
2018-10-17T12:28:22.970Z,15.97
2018-10-17T12:30:51.389Z,15.70
2018-10-17T12:33:19.809Z,15.43
2018-10-17T12:35:48.287Z,14.90
2018-10-17T12:38:16.784Z,14.40
2018-10-17T12:40:45.350Z,18.70
2018-10-17T12:43:13.606Z,16.83
2018-10-17T12:45:42.094Z,16.47
2018-10-17T12:48:10.534Z,16.63
2018-10-17T12:50:38.985Z,14.50
2018-10-17T12:53:07.670Z,15.10
2018-10-17T12:55:35.869Z,16.73
2018-10-17T12:58:04.423Z,15.93
2018-10-17T13:00:32.848Z,15.10
2018-10-17T13:03:01.280Z,15.90
2018-10-17T13:05:29.736Z,14.77
2018-10-17T13:07:58.161Z,14.30
2018-10-17T13:10:26.736Z,12.60
2018-10-17T13:12:55.195Z,15.10
2018-10-17T13:15:23.557Z,15.17
2018-10-17T13:17:52.016Z,14.63
2018-10-17T13:20:20.492Z,14.57
2018-10-17T13:22:48.922Z,14.90
2018-10-17T13:25:17.496Z,14.33
2018-10-17T13:27:45.948Z,13.10
2018-10-17T13:30:14.392Z,24.00
2018-10-17T13:32:42.832Z,15.47
2018-10-17T13:35:11.358Z,12.10
2018-10-17T13:37:39.716Z,12.90
2018-10-17T13:40:08.215Z,12.43
2018-10-17T13:42:36.798Z,12.50
2018-10-17T13:45:05.825Z,12.50
2018-10-17T13:47:34.270Z,13.30
2018-10-17T13:50:02.731Z,12.50
2018-10-17T13:52:31.130Z,11.80
2018-10-17T13:55:00.055Z,13.60
2018-10-17T13:57:28.428Z,13.17
2018-10-17T13:59:57.346Z,14.33
2018-10-17T14:02:26.459Z,13.87
2018-10-17T14:04:55.231Z,12.43
2018-10-17T14:07:23.668Z,11.50
2018-10-17T14:09:52.823Z,11.17
2018-10-17T14:12:22.335Z,11.43
2018-10-17T14:14:50.881Z,10.93
2018-10-17T14:17:19.375Z,11.07
2018-10-17T14:19:47.772Z,12.57
2018-10-17T14:22:16.255Z,11.97
2018-10-17T14:24:44.803Z,11.77
2018-10-17T14:27:14.017Z,11.93
2018-10-17T14:29:42.489Z,10.67
2018-10-17T14:32:10.881Z,11.30
2018-10-17T14:34:39.284Z,10.73
2018-10-17T14:37:07.871Z,11.93
2018-10-17T14:39:36.271Z,10.83
2018-10-17T14:42:04.868Z,11.33
2018-10-17T14:44:33.303Z,10.70
2018-10-17T14:47:02.178Z,12.37
2018-10-17T14:49:30.595Z,10.03
2018-10-17T14:51:58.966Z,11.07
2018-10-17T14:54:27.385Z,12.20
2018-10-17T14:56:55.937Z,12.50
2018-10-17T14:59:24.365Z,12.00
2018-10-17T15:01:53.549Z,13.63
2018-10-17T15:04:22.521Z,13.43
2018-10-17T15:06:52.694Z,14.23
2018-10-17T15:09:21.319Z,13.47
2018-10-17T15:11:49.617Z,14.87
2018-10-17T15:14:18.580Z,13.20
2018-10-17T15:16:47.071Z,15.17
2018-10-17T15:19:15.588Z,15.53
2018-10-17T15:21:44.039Z,14.40
2018-10-17T15:24:12.591Z,14.50
2018-10-17T15:26:41.011Z,12.70
2018-10-17T15:29:09.559Z,14.07
2018-10-17T15:31:38.048Z,15.80
2018-10-17T15:34:06.464Z,14.97
2018-10-17T15:36:34.992Z,15.17
2018-10-17T15:39:05.122Z,13.70
2018-10-17T15:41:34.065Z,15.20
2018-10-17T15:44:02.485Z,14.30
2018-10-17T15:46:30.924Z,14.10
2018-10-17T15:48:59.376Z,13.97
2018-10-17T15:51:27.881Z,13.67
2018-10-17T15:53:56.364Z,15.10
2018-10-17T15:56:24.952Z,13.60
2018-10-17T15:58:53.512Z,13.23
2018-10-17T16:01:21.909Z,12.00
2018-10-17T16:03:50.348Z,12.40
2018-10-17T16:06:18.977Z,11.37
2018-10-17T16:08:47.353Z,11.47
2018-10-17T16:11:16.834Z,12.60
2018-10-17T16:13:45.298Z,12.70
2018-10-17T16:16:13.767Z,11.60
2018-10-17T16:18:42.232Z,12.10
2018-10-17T16:21:10.683Z,15.17
2018-10-17T16:23:39.153Z,14.13
2018-10-17T16:26:07.750Z,14.50
2018-10-17T16:28:36.105Z,13.50
2018-10-17T16:31:04.599Z,13.20
2018-10-17T16:33:33.037Z,12.27
2018-10-17T16:36:01.543Z,12.90
2018-10-17T16:38:30.032Z,12.70
2018-10-17T16:40:58.563Z,11.57
2018-10-17T16:43:26.997Z,12.07
2018-10-17T16:45:55.455Z,16.00
2018-10-17T16:48:23.860Z,13.23
2018-10-17T16:50:52.436Z,13.43
2018-10-17T16:53:20.873Z,13.63
2018-10-17T16:55:49.331Z,14.17
2018-10-17T16:58:17.842Z,13.70
2018-10-17T17:00:46.286Z,14.17
2018-10-17T17:03:14.789Z,14.63
2018-10-17T17:05:43.207Z,14.97
2018-10-17T17:08:11.721Z,14.37
2018-10-17T17:10:40.273Z,14.33
2018-10-17T17:13:08.811Z,15.70
2018-10-17T17:15:37.854Z,14.20
2018-10-17T17:18:06.304Z,14.67
2018-10-17T17:20:34.760Z,14.73
2018-10-17T17:23:03.242Z,15.20
2018-10-17T17:25:31.659Z,20.77
2018-10-17T17:28:00.105Z,14.30
2018-10-17T17:30:28.524Z,14.40
2018-10-17T17:32:57.041Z,14.20
2018-10-17T17:35:25.473Z,13.47
2018-10-17T17:37:53.925Z,14.73
2018-10-17T17:40:22.681Z,15.30
2018-10-17T17:42:51.162Z,15.30
2018-10-17T17:45:19.590Z,14.03
2018-10-17T17:47:48.045Z,14.83
2018-10-17T17:50:16.507Z,14.13
2018-10-17T17:52:45.037Z,15.43
2018-10-17T17:55:13.576Z,16.20
2018-10-17T17:57:42.046Z,14.87
2018-10-17T18:00:11.402Z,16.03
2018-10-17T18:02:39.865Z,16.50
2018-10-17T18:05:09.275Z,16.93
2018-10-17T18:07:37.885Z,19.83
2018-10-17T18:10:07.435Z,14.97
2018-10-17T18:12:35.988Z,17.50
2018-10-17T18:15:04.506Z,17.90
2018-10-17T18:17:32.952Z,16.80
2018-10-17T18:20:01.504Z,17.60
2018-10-17T18:22:30.092Z,16.83
2018-10-17T18:24:58.515Z,17.30
2018-10-17T18:27:26.981Z,21.13
2018-10-17T18:29:55.496Z,20.50
2018-10-17T18:32:24.027Z,18.17
2018-10-17T18:34:52.473Z,18.23
2018-10-17T18:37:20.919Z,19.10
2018-10-17T18:39:49.371Z,19.83
2018-10-17T18:42:17.802Z,20.03
2018-10-17T18:44:46.193Z,20.67
2018-10-17T18:47:14.680Z,20.40
2018-10-17T18:49:43.157Z,22.50
2018-10-17T18:52:11.572Z,24.90
2018-10-17T18:54:40.020Z,26.10
2018-10-17T18:57:08.617Z,25.87
2018-10-17T18:59:37.166Z,26.07
2018-10-17T19:02:05.792Z,26.73
2018-10-17T19:04:34.307Z,25.80
2018-10-17T19:07:02.726Z,27.07
2018-10-17T19:09:31.214Z,31.30
2018-10-17T19:11:59.709Z,31.37
2018-10-17T19:14:28.220Z,31.83
2018-10-17T19:16:56.627Z,32.43
2018-10-17T19:19:25.195Z,35.33
2018-10-17T19:21:53.672Z,32.43
2018-10-17T19:24:22.153Z,33.70
2018-10-17T19:26:50.584Z,33.33
2018-10-17T19:29:19.030Z,35.63
2018-10-17T19:31:47.525Z,36.50
2018-10-17T19:34:15.952Z,36.73
2018-10-17T19:36:44.376Z,37.67
2018-10-17T19:39:13.741Z,37.13
2018-10-17T19:41:42.594Z,38.53
2018-10-17T19:44:11.121Z,35.37
2018-10-17T19:46:40.454Z,38.93
2018-10-17T19:49:09.113Z,41.97
2018-10-17T19:51:37.569Z,40.80
2018-10-17T19:54:06.486Z,45.13
2018-10-17T19:56:35.058Z,43.60
2018-10-17T19:59:03.521Z,44.40
2018-10-17T20:01:32.058Z,39.87
2018-10-17T20:04:00.860Z,38.47
2018-10-17T20:06:30.465Z,43.00
2018-10-17T20:08:58.928Z,40.07
2018-10-17T20:11:27.452Z,39.97
2018-10-17T20:13:55.888Z,48.23
2018-10-17T20:16:24.298Z,50.20
2018-10-17T20:18:52.772Z,45.07
2018-10-17T20:21:21.187Z,44.70
2018-10-17T20:23:49.665Z,42.20
2018-10-17T20:26:18.236Z,46.00
2018-10-17T20:28:46.684Z,45.07
2018-10-17T20:31:15.106Z,44.57
2018-10-17T20:33:43.555Z,46.10
2018-10-17T20:36:12.031Z,46.10
2018-10-17T20:38:40.503Z,47.70
2018-10-17T20:41:08.941Z,48.90
2018-10-17T20:43:37.424Z,45.87
2018-10-17T20:46:05.893Z,46.03
2018-10-17T20:48:34.404Z,45.37
2018-10-17T20:51:02.846Z,46.90
2018-10-17T20:53:31.313Z,43.30
2018-10-17T20:55:59.748Z,47.10
2018-10-17T20:58:28.176Z,56.87
2018-10-17T21:00:56.593Z,54.27
2018-10-17T21:03:25.026Z,49.07
2018-10-17T21:05:53.495Z,50.17
2018-10-17T21:08:21.985Z,51.00
2018-10-17T21:10:50.405Z,50.03
2018-10-17T21:13:18.850Z,50.60
2018-10-17T21:15:47.263Z,52.97
2018-10-17T21:18:15.742Z,50.40
2018-10-17T21:20:44.174Z,48.37
2018-10-17T21:23:12.679Z,51.60
2018-10-17T21:25:41.182Z,53.37
2018-10-17T21:28:09.749Z,55.67
2018-10-17T21:30:38.234Z,54.43
2018-10-17T21:33:07.041Z,55.87
2018-10-17T21:35:35.636Z,51.27
2018-10-17T21:38:04.818Z,53.23
2018-10-17T21:40:33.232Z,53.53
2018-10-17T21:43:01.705Z,51.67
2018-10-17T21:45:30.163Z,52.20
2018-10-17T21:47:58.601Z,52.77
2018-10-17T21:50:27.043Z,53.60
2018-10-17T21:52:55.536Z,55.17
2018-10-17T21:55:23.914Z,52.10
2018-10-17T21:57:52.925Z,52.47
2018-10-17T22:00:21.365Z,52.60
2018-10-17T22:02:49.773Z,54.60
2018-10-17T22:05:18.200Z,50.73
2018-10-17T22:07:46.664Z,51.50
2018-10-17T22:10:15.092Z,56.10
2018-10-17T22:12:43.498Z,50.03
2018-10-17T22:15:12.016Z,50.50
2018-10-17T22:17:40.530Z,53.40
2018-10-17T22:20:09.049Z,50.70
2018-10-17T22:22:37.404Z,50.53
2018-10-17T22:25:06.773Z,49.13
2018-10-17T22:27:35.244Z,54.70
2018-10-17T22:30:03.791Z,53.90
2018-10-17T22:32:32.229Z,49.37
2018-10-17T22:35:00.674Z,49.13
2018-10-17T22:37:29.114Z,48.33
2018-10-17T22:39:57.513Z,54.63
2018-10-17T22:42:25.917Z,49.40
2018-10-17T22:44:54.369Z,51.33
2018-10-17T22:47:22.792Z,50.17
2018-10-17T22:49:51.228Z,49.67
2018-10-17T22:52:19.627Z,48.93
2018-10-17T22:54:48.052Z,50.60
2018-10-17T22:57:16.560Z,46.27
2018-10-17T22:59:45.085Z,48.77
2018-10-17T23:02:13.605Z,51.10
2018-10-17T23:04:42.009Z,47.43
2018-10-17T23:07:10.425Z,47.43
2018-10-17T23:09:38.888Z,53.83
2018-10-17T23:12:07.364Z,51.50
2018-10-17T23:14:35.802Z,48.53
2018-10-17T23:17:04.299Z,49.27
2018-10-17T23:19:32.715Z,47.20
2018-10-17T23:22:01.114Z,48.00
2018-10-17T23:24:29.584Z,47.93
2018-10-17T23:26:58.005Z,46.50
2018-10-17T23:29:26.403Z,48.37
2018-10-17T23:31:54.839Z,48.10
2018-10-17T23:34:23.268Z,48.37
2018-10-17T23:36:51.664Z,49.63
2018-10-17T23:39:20.045Z,46.70
2018-10-17T23:41:48.459Z,50.20
2018-10-17T23:44:16.966Z,53.27
2018-10-17T23:46:45.357Z,48.77
2018-10-17T23:49:13.749Z,47.90
2018-10-17T23:51:42.106Z,48.77
2018-10-17T23:54:10.608Z,48.00
2018-10-17T23:56:39.020Z,51.33
2018-10-17T23:59:07.447Z,48.30
